HTW weather

Public forecast

Using degrees Fahrenheit for public forecast. Weather courtesy of forecast.io.

Closest aviation weather report (METAR) to Lawrence County Airpark

Closest report is Tri-State/Milton J. Ferguson Field, 4.4 nm (8.1 km) SW. Retrieved 2020/08/14 01:38 UTC (0 seconds ago):

KHTS 140138Z 22007KT 10SM FEW110 25/20 A2999

Closest aviation forecast (TAF) to Lawrence County Airpark

Closest forecast is Tri-State/Milton J. Ferguson Field, 4.4 nm (8.1 km) SW. Retrieved 2020-08-14 00:22 UTC (1 hour ago):

TAF KHTS 132320Z 1400/1424 00000KT P6SM VCTS SCT150CB FM140900 00000KT 4SM BR BKN100 FM141200 07004KT P6SM BKN045 FM142100 07005KT P6SM VCTS BKN070CB